sensor_id;sensor_type;location;lat;lon;timestamp;P1;durP1;ratioP1;P2;durP2;ratioP2
2662;SDS011;49701;48.072;7.800;2022-08-25T00:02:25;3.05;;;1.90;;
2662;SDS011;49701;48.072;7.800;2022-08-25T00:04:50;2.78;;;2.30;;
2662;SDS011;49701;48.072;7.800;2022-08-25T00:07:16;2.55;;;2.35;;
2662;SDS011;49701;48.072;7.800;2022-08-25T00:09:42;2.40;;;2.20;;
2662;SDS011;49701;48.072;7.800;2022-08-25T00:12:07;2.45;;;2.25;;
2662;SDS011;49701;48.072;7.800;2022-08-25T00:14:34;2.42;;;2.10;;
2662;SDS011;49701;48.072;7.800;2022-08-25T00:17:01;3.08;;;2.45;;
2662;SDS011;49701;48.072;7.800;2022-08-25T00:19:29;3.05;;;1.90;;
2662;SDS011;49701;48.072;7.800;2022-08-25T00:21:58;3.28;;;2.00;;
2662;SDS011;49701;48.072;7.800;2022-08-25T00:24:25;4.88;;;2.60;;
2662;SDS011;49701;48.072;7.800;2022-08-25T00:26:52;2.72;;;2.25;;
2662;SDS011;49701;48.072;7.800;2022-08-25T00:29:19;3.97;;;2.42;;
2662;SDS011;49701;48.072;7.800;2022-08-25T00:31:45;3.47;;;2.47;;
2662;SDS011;49701;48.072;7.800;2022-08-25T00:34:13;2.78;;;2.40;;
2662;SDS011;49701;48.072;7.800;2022-08-25T00:36:41;2.95;;;2.63;;
2662;SDS011;49701;48.072;7.800;2022-08-25T00:39:07;2.58;;;2.38;;
2662;SDS011;49701;48.072;7.800;2022-08-25T00:41:34;4.30;;;2.50;;
2662;SDS011;49701;48.072;7.800;2022-08-25T00:44:03;2.72;;;2.47;;
2662;SDS011;49701;48.072;7.800;2022-08-25T00:46:42;2.70;;;2.50;;
2662;SDS011;49701;48.072;7.800;2022-08-25T00:49:15;3.58;;;2.78;;
2662;SDS011;49701;48.072;7.800;2022-08-25T00:54:23;4.95;;;2.80;;
2662;SDS011;49701;48.072;7.800;2022-08-25T00:56:52;4.40;;;2.90;;
2662;SDS011;49701;48.072;7.800;2022-08-25T00:59:19;2.72;;;2.53;;
2662;SDS011;49701;48.072;7.800;2022-08-25T01:01:45;4.28;;;2.33;;
2662;SDS011;49701;48.072;7.800;2022-08-25T01:04:12;3.40;;;2.47;;
2662;SDS011;49701;48.072;7.800;2022-08-25T01:06:38;3.38;;;2.55;;
2662;SDS011;49701;48.072;7.800;2022-08-25T01:09:07;4.10;;;2.53;;
2662;SDS011;49701;48.072;7.800;2022-08-25T01:11:33;3.95;;;2.55;;
2662;SDS011;49701;48.072;7.800;2022-08-25T01:13:59;2.90;;;2.70;;
2662;SDS011;49701;48.072;7.800;2022-08-25T01:16:30;7.55;;;2.88;;
2662;SDS011;49701;48.072;7.800;2022-08-25T01:19:00;3.33;;;2.50;;
2662;SDS011;49701;48.072;7.800;2022-08-25T01:21:27;5.13;;;2.80;;
2662;SDS011;49701;48.072;7.800;2022-08-25T01:23:53;2.95;;;2.40;;
2662;SDS011;49701;48.072;7.800;2022-08-25T01:26:23;3.97;;;2.58;;
2662;SDS011;49701;48.072;7.800;2022-08-25T01:28:51;2.92;;;2.70;;
2662;SDS011;49701;48.072;7.800;2022-08-25T01:31:36;3.97;;;2.60;;
2662;SDS011;49701;48.072;7.800;2022-08-25T01:34:04;4.60;;;2.97;;
2662;SDS011;49701;48.072;7.800;2022-08-25T01:36:31;3.00;;;2.80;;
2662;SDS011;49701;48.072;7.800;2022-08-25T01:38:57;4.28;;;2.90;;
2662;SDS011;49701;48.072;7.800;2022-08-25T01:44:04;3.42;;;3.10;;
2662;SDS011;49701;48.072;7.800;2022-08-25T01:46:30;3.38;;;2.88;;
2662;SDS011;49701;48.072;7.800;2022-08-25T01:48:56;4.15;;;2.80;;
2662;SDS011;49701;48.072;7.800;2022-08-25T01:51:23;4.40;;;2.90;;
2662;SDS011;49701;48.072;7.800;2022-08-25T01:53:49;3.13;;;2.83;;
2662;SDS011;49701;48.072;7.800;2022-08-25T01:56:16;3.83;;;3.20;;
2662;SDS011;49701;48.072;7.800;2022-08-25T01:58:45;3.15;;;2.95;;
2662;SDS011;49701;48.072;7.800;2022-08-25T02:01:16;3.13;;;2.83;;
2662;SDS011;49701;48.072;7.800;2022-08-25T02:03:50;3.22;;;2.90;;
2662;SDS011;49701;48.072;7.800;2022-08-25T02:06:22;3.33;;;2.80;;
2662;SDS011;49701;48.072;7.800;2022-08-25T02:08:59;3.25;;;2.60;;
2662;SDS011;49701;48.072;7.800;2022-08-25T02:11:29;3.45;;;2.78;;
2662;SDS011;49701;48.072;7.800;2022-08-25T02:13:55;4.00;;;2.75;;
2662;SDS011;49701;48.072;7.800;2022-08-25T02:16:25;3.38;;;2.95;;
2662;SDS011;49701;48.072;7.800;2022-08-25T02:18:54;3.20;;;2.90;;
2662;SDS011;49701;48.072;7.800;2022-08-25T02:21:21;3.40;;;3.10;;
2662;SDS011;49701;48.072;7.800;2022-08-25T02:23:47;3.90;;;2.70;;
2662;SDS011;49701;48.072;7.800;2022-08-25T02:26:12;2.80;;;2.60;;
2662;SDS011;49701;48.072;7.800;2022-08-25T02:28:43;2.63;;;2.30;;
2662;SDS011;49701;48.072;7.800;2022-08-25T02:31:10;2.72;;;2.35;;
2662;SDS011;49701;48.072;7.800;2022-08-25T02:33:36;4.40;;;2.83;;
2662;SDS011;49701;48.072;7.800;2022-08-25T02:36:02;4.18;;;3.00;;
2662;SDS011;49701;48.072;7.800;2022-08-25T02:38:28;2.95;;;2.75;;
2662;SDS011;49701;48.072;7.800;2022-08-25T02:40:55;4.00;;;2.60;;
2662;SDS011;49701;48.072;7.800;2022-08-25T02:43:22;4.45;;;3.13;;
2662;SDS011;49701;48.072;7.800;2022-08-25T02:45:49;3.20;;;2.50;;
2662;SDS011;49701;48.072;7.800;2022-08-25T02:48:15;4.10;;;2.65;;
2662;SDS011;49701;48.072;7.800;2022-08-25T02:50:45;3.63;;;3.00;;
2662;SDS011;49701;48.072;7.800;2022-08-25T02:53:16;3.90;;;3.13;;
2662;SDS011;49701;48.072;7.800;2022-08-25T02:55:42;4.05;;;3.20;;
2662;SDS011;49701;48.072;7.800;2022-08-25T02:58:08;3.47;;;2.95;;
2662;SDS011;49701;48.072;7.800;2022-08-25T03:00:34;3.10;;;2.90;;
2662;SDS011;49701;48.072;7.800;2022-08-25T03:03:00;3.40;;;3.20;;
2662;SDS011;49701;48.072;7.800;2022-08-25T03:05:26;3.85;;;3.08;;
2662;SDS011;49701;48.072;7.800;2022-08-25T03:07:51;3.72;;;3.42;;
2662;SDS011;49701;48.072;7.800;2022-08-25T03:10:17;5.00;;;3.22;;
2662;SDS011;49701;48.072;7.800;2022-08-25T03:12:44;3.22;;;2.92;;
2662;SDS011;49701;48.072;7.800;2022-08-25T03:15:11;3.60;;;3.25;;
2662;SDS011;49701;48.072;7.800;2022-08-25T03:17:43;3.40;;;3.10;;
2662;SDS011;49701;48.072;7.800;2022-08-25T03:20:09;3.38;;;3.03;;
2662;SDS011;49701;48.072;7.800;2022-08-25T03:22:35;4.72;;;3.30;;
2662;SDS011;49701;48.072;7.800;2022-08-25T03:25:01;3.00;;;2.72;;
2662;SDS011;49701;48.072;7.800;2022-08-25T03:27:47;3.95;;;3.00;;
2662;SDS011;49701;48.072;7.800;2022-08-25T03:30:14;3.20;;;2.90;;
2662;SDS011;49701;48.072;7.800;2022-08-25T03:32:40;3.80;;;3.38;;
2662;SDS011;49701;48.072;7.800;2022-08-25T03:35:06;3.63;;;3.25;;
2662;SDS011;49701;48.072;7.800;2022-08-25T03:37:33;4.43;;;3.25;;
2662;SDS011;49701;48.072;7.800;2022-08-25T03:40:00;4.22;;;3.33;;
2662;SDS011;49701;48.072;7.800;2022-08-25T03:42:27;5.20;;;3.47;;
2662;SDS011;49701;48.072;7.800;2022-08-25T03:44:53;3.80;;;3.00;;
2662;SDS011;49701;48.072;7.800;2022-08-25T03:47:19;3.67;;;3.20;;
2662;SDS011;49701;48.072;7.800;2022-08-25T03:49:44;5.72;;;3.40;;
2662;SDS011;49701;48.072;7.800;2022-08-25T03:52:10;6.30;;;3.25;;
2662;SDS011;49701;48.072;7.800;2022-08-25T03:54:36;3.97;;;3.28;;
2662;SDS011;49701;48.072;7.800;2022-08-25T03:57:01;5.20;;;3.28;;
2662;SDS011;49701;48.072;7.800;2022-08-25T03:59:27;7.32;;;3.20;;
2662;SDS011;49701;48.072;7.800;2022-08-25T04:01:53;4.85;;;3.40;;
2662;SDS011;49701;48.072;7.800;2022-08-25T04:04:19;5.00;;;3.70;;
2662;SDS011;49701;48.072;7.800;2022-08-25T04:06:44;3.67;;;3.08;;
2662;SDS011;49701;48.072;7.800;2022-08-25T04:09:11;3.78;;;3.17;;
2662;SDS011;49701;48.072;7.800;2022-08-25T04:11:36;4.18;;;3.10;;
2662;SDS011;49701;48.072;7.800;2022-08-25T04:14:03;5.35;;;3.47;;
2662;SDS011;49701;48.072;7.800;2022-08-25T04:16:31;4.25;;;3.25;;
2662;SDS011;49701;48.072;7.800;2022-08-25T04:18:59;5.70;;;3.42;;
2662;SDS011;49701;48.072;7.800;2022-08-25T04:21:26;7.05;;;2.97;;
2662;SDS011;49701;48.072;7.800;2022-08-25T04:23:53;5.15;;;3.35;;
2662;SDS011;49701;48.072;7.800;2022-08-25T04:26:21;4.72;;;3.22;;
2662;SDS011;49701;48.072;7.800;2022-08-25T04:28:51;4.18;;;3.50;;
2662;SDS011;49701;48.072;7.800;2022-08-25T04:31:18;3.83;;;2.92;;
2662;SDS011;49701;48.072;7.800;2022-08-25T04:33:45;4.00;;;3.10;;
2662;SDS011;49701;48.072;7.800;2022-08-25T04:36:12;3.58;;;3.28;;
2662;SDS011;49701;48.072;7.800;2022-08-25T04:38:39;4.40;;;3.17;;
2662;SDS011;49701;48.072;7.800;2022-08-25T04:41:06;4.07;;;3.67;;
2662;SDS011;49701;48.072;7.800;2022-08-25T04:43:33;5.03;;;3.78;;
2662;SDS011;49701;48.072;7.800;2022-08-25T04:46:04;4.88;;;3.67;;
2662;SDS011;49701;48.072;7.800;2022-08-25T04:48:31;11.88;;;5.53;;
2662;SDS011;49701;48.072;7.800;2022-08-25T04:50:57;11.13;;;5.05;;
2662;SDS011;49701;48.072;7.800;2022-08-25T04:53:23;7.53;;;5.18;;
2662;SDS011;49701;48.072;7.800;2022-08-25T04:55:48;6.57;;;5.07;;
2662;SDS011;49701;48.072;7.800;2022-08-25T04:58:14;8.63;;;6.07;;
2662;SDS011;49701;48.072;7.800;2022-08-25T05:00:40;7.65;;;5.18;;
2662;SDS011;49701;48.072;7.800;2022-08-25T05:03:07;7.80;;;5.55;;
2662;SDS011;49701;48.072;7.800;2022-08-25T05:05:36;8.95;;;5.97;;
2662;SDS011;49701;48.072;7.800;2022-08-25T05:08:02;7.93;;;5.50;;
2662;SDS011;49701;48.072;7.800;2022-08-25T05:10:29;6.15;;;5.55;;
2662;SDS011;49701;48.072;7.800;2022-08-25T05:12:55;7.57;;;6.07;;
2662;SDS011;49701;48.072;7.800;2022-08-25T05:15:20;8.85;;;6.72;;
2662;SDS011;49701;48.072;7.800;2022-08-25T05:18:05;10.98;;;6.80;;
2662;SDS011;49701;48.072;7.800;2022-08-25T05:20:31;8.93;;;5.50;;
2662;SDS011;49701;48.072;7.800;2022-08-25T05:22:56;6.63;;;5.80;;
2662;SDS011;49701;48.072;7.800;2022-08-25T05:25:22;7.35;;;5.38;;
2662;SDS011;49701;48.072;7.800;2022-08-25T05:27:48;6.72;;;4.78;;
2662;SDS011;49701;48.072;7.800;2022-08-25T05:30:14;5.03;;;4.18;;
2662;SDS011;49701;48.072;7.800;2022-08-25T05:32:40;5.45;;;4.25;;
2662;SDS011;49701;48.072;7.800;2022-08-25T05:35:05;4.95;;;3.92;;
2662;SDS011;49701;48.072;7.800;2022-08-25T05:37:31;4.75;;;3.55;;
2662;SDS011;49701;48.072;7.800;2022-08-25T05:39:57;6.60;;;3.83;;
2662;SDS011;49701;48.072;7.800;2022-08-25T05:42:25;5.28;;;3.92;;
2662;SDS011;49701;48.072;7.800;2022-08-25T05:44:52;6.07;;;3.58;;
2662;SDS011;49701;48.072;7.800;2022-08-25T05:47:19;4.95;;;4.20;;
2662;SDS011;49701;48.072;7.800;2022-08-25T05:49:45;6.45;;;4.18;;
2662;SDS011;49701;48.072;7.800;2022-08-25T05:52:10;4.43;;;4.03;;
2662;SDS011;49701;48.072;7.800;2022-08-25T05:54:36;5.45;;;3.75;;
2662;SDS011;49701;48.072;7.800;2022-08-25T05:57:04;4.10;;;3.70;;
2662;SDS011;49701;48.072;7.800;2022-08-25T05:59:30;4.65;;;4.07;;
2662;SDS011;49701;48.072;7.800;2022-08-25T06:01:56;6.68;;;3.88;;
2662;SDS011;49701;48.072;7.800;2022-08-25T06:07:06;4.45;;;3.78;;
2662;SDS011;49701;48.072;7.800;2022-08-25T06:09:31;5.32;;;4.00;;
2662;SDS011;49701;48.072;7.800;2022-08-25T06:11:57;7.00;;;4.15;;
2662;SDS011;49701;48.072;7.800;2022-08-25T06:14:23;5.43;;;3.97;;
2662;SDS011;49701;48.072;7.800;2022-08-25T06:16:48;5.72;;;3.65;;
2662;SDS011;49701;48.072;7.800;2022-08-25T06:19:15;5.05;;;3.38;;
2662;SDS011;49701;48.072;7.800;2022-08-25T06:21:42;5.45;;;3.70;;
2662;SDS011;49701;48.072;7.800;2022-08-25T06:24:08;4.25;;;3.35;;
2662;SDS011;49701;48.072;7.800;2022-08-25T06:26:34;4.80;;;3.42;;
2662;SDS011;49701;48.072;7.800;2022-08-25T06:29:02;3.75;;;3.28;;
2662;SDS011;49701;48.072;7.800;2022-08-25T06:31:27;6.85;;;3.47;;
2662;SDS011;49701;48.072;7.800;2022-08-25T06:33:53;4.88;;;3.58;;
2662;SDS011;49701;48.072;7.800;2022-08-25T06:36:19;4.88;;;3.50;;
2662;SDS011;49701;48.072;7.800;2022-08-25T06:38:45;4.43;;;3.30;;
2662;SDS011;49701;48.072;7.800;2022-08-25T06:41:11;5.20;;;3.05;;
2662;SDS011;49701;48.072;7.800;2022-08-25T06:43:38;5.65;;;3.38;;
2662;SDS011;49701;48.072;7.800;2022-08-25T06:46:13;3.65;;;3.20;;
2662;SDS011;49701;48.072;7.800;2022-08-25T06:48:40;3.30;;;3.00;;
2662;SDS011;49701;48.072;7.800;2022-08-25T06:51:07;4.15;;;3.03;;
2662;SDS011;49701;48.072;7.800;2022-08-25T06:53:34;7.13;;;2.83;;
2662;SDS011;49701;48.072;7.800;2022-08-25T06:56:00;4.45;;;3.20;;
2662;SDS011;49701;48.072;7.800;2022-08-25T07:00:52;3.72;;;3.10;;
2662;SDS011;49701;48.072;7.800;2022-08-25T07:03:17;4.45;;;2.45;;
2662;SDS011;49701;48.072;7.800;2022-08-25T07:05:52;5.22;;;2.80;;
2662;SDS011;49701;48.072;7.800;2022-08-25T07:08:19;6.53;;;2.85;;
2662;SDS011;49701;48.072;7.800;2022-08-25T07:10:45;2.90;;;2.70;;
2662;SDS011;49701;48.072;7.800;2022-08-25T07:13:11;3.28;;;2.80;;
2662;SDS011;49701;48.072;7.800;2022-08-25T07:15:37;5.15;;;3.20;;
2662;SDS011;49701;48.072;7.800;2022-08-25T07:18:04;5.80;;;2.83;;
2662;SDS011;49701;48.072;7.800;2022-08-25T07:20:30;4.15;;;3.10;;
2662;SDS011;49701;48.072;7.800;2022-08-25T07:22:57;3.35;;;2.83;;
2662;SDS011;49701;48.072;7.800;2022-08-25T07:25:23;3.97;;;3.20;;
2662;SDS011;49701;48.072;7.800;2022-08-25T07:27:49;3.72;;;3.30;;
2662;SDS011;49701;48.072;7.800;2022-08-25T07:30:15;6.32;;;3.75;;
2662;SDS011;49701;48.072;7.800;2022-08-25T07:32:41;7.15;;;3.25;;
2662;SDS011;49701;48.072;7.800;2022-08-25T07:35:07;7.10;;;3.38;;
2662;SDS011;49701;48.072;7.800;2022-08-25T07:37:39;5.80;;;3.10;;
2662;SDS011;49701;48.072;7.800;2022-08-25T07:40:11;5.97;;;2.97;;
2662;SDS011;49701;48.072;7.800;2022-08-25T07:42:52;5.88;;;2.50;;
2662;SDS011;49701;48.072;7.800;2022-08-25T07:45:19;5.22;;;2.63;;
2662;SDS011;49701;48.072;7.800;2022-08-25T07:47:54;6.35;;;3.03;;
2662;SDS011;49701;48.072;7.800;2022-08-25T07:50:21;8.63;;;3.63;;
2662;SDS011;49701;48.072;7.800;2022-08-25T07:52:47;3.88;;;2.63;;
2662;SDS011;49701;48.072;7.800;2022-08-25T07:55:13;6.40;;;2.75;;
2662;SDS011;49701;48.072;7.800;2022-08-25T07:57:39;3.00;;;2.53;;
2662;SDS011;49701;48.072;7.800;2022-08-25T08:00:05;2.90;;;2.50;;
2662;SDS011;49701;48.072;7.800;2022-08-25T08:02:32;2.83;;;2.15;;
2662;SDS011;49701;48.072;7.800;2022-08-25T08:04:58;2.80;;;2.30;;
2662;SDS011;49701;48.072;7.800;2022-08-25T08:09:50;3.53;;;2.22;;
2662;SDS011;49701;48.072;7.800;2022-08-25T08:12:16;11.70;;;2.45;;
2662;SDS011;49701;48.072;7.800;2022-08-25T08:14:42;4.97;;;2.50;;
2662;SDS011;49701;48.072;7.800;2022-08-25T08:17:08;2.70;;;2.38;;
2662;SDS011;49701;48.072;7.800;2022-08-25T08:19:34;4.13;;;2.30;;
2662;SDS011;49701;48.072;7.800;2022-08-25T08:22:01;3.40;;;2.20;;
2662;SDS011;49701;48.072;7.800;2022-08-25T08:24:30;2.85;;;1.90;;
2662;SDS011;49701;48.072;7.800;2022-08-25T08:27:03;2.40;;;2.20;;
2662;SDS011;49701;48.072;7.800;2022-08-25T08:29:30;4.18;;;2.13;;
2662;SDS011;49701;48.072;7.800;2022-08-25T08:31:56;3.63;;;1.90;;
2662;SDS011;49701;48.072;7.800;2022-08-25T08:34:22;4.40;;;2.05;;
2662;SDS011;49701;48.072;7.800;2022-08-25T08:36:48;3.63;;;2.22;;
2662;SDS011;49701;48.072;7.800;2022-08-25T08:44:41;2.30;;;2.10;;
2662;SDS011;49701;48.072;7.800;2022-08-25T08:53:10;4.03;;;2.10;;
2662;SDS011;49701;48.072;7.800;2022-08-25T08:58:04;2.58;;;1.90;;
2662;SDS011;49701;48.072;7.800;2022-08-25T09:00:36;2.63;;;2.30;;
2662;SDS011;49701;48.072;7.800;2022-08-25T09:03:07;3.50;;;2.17;;
2662;SDS011;49701;48.072;7.800;2022-08-25T09:05:48;2.42;;;2.22;;
2662;SDS011;49701;48.072;7.800;2022-08-25T09:08:15;2.42;;;2.05;;
2662;SDS011;49701;48.072;7.800;2022-08-25T09:22:17;2.33;;;1.90;;
2662;SDS011;49701;48.072;7.800;2022-08-25T09:28:21;3.63;;;1.90;;
2662;SDS011;49701;48.072;7.800;2022-08-25T09:33:21;4.15;;;2.03;;
2662;SDS011;49701;48.072;7.800;2022-08-25T09:35:49;2.88;;;2.00;;
2662;SDS011;49701;48.072;7.800;2022-08-25T09:38:16;1.90;;;1.70;;
2662;SDS011;49701;48.072;7.800;2022-08-25T09:40:44;2.70;;;1.80;;
2662;SDS011;49701;48.072;7.800;2022-08-25T09:43:19;2.45;;;1.70;;
2662;SDS011;49701;48.072;7.800;2022-08-25T09:46:02;2.10;;;1.90;;
2662;SDS011;49701;48.072;7.800;2022-08-25T09:53:53;1.95;;;1.70;;
2662;SDS011;49701;48.072;7.800;2022-08-25T09:56:29;1.95;;;1.58;;
2662;SDS011;49701;48.072;7.800;2022-08-25T09:59:17;3.83;;;1.90;;
2662;SDS011;49701;48.072;7.800;2022-08-25T10:11:53;2.92;;;2.00;;
2662;SDS011;49701;48.072;7.800;2022-08-25T10:16:46;2.38;;;2.03;;
2662;SDS011;49701;48.072;7.800;2022-08-25T10:21:39;3.50;;;1.85;;
2662;SDS011;49701;48.072;7.800;2022-08-25T10:24:07;3.13;;;1.75;;
2662;SDS011;49701;48.072;7.800;2022-08-25T10:26:44;1.48;;;1.38;;
2662;SDS011;49701;48.072;7.800;2022-08-25T10:35:13;4.15;;;1.60;;
2662;SDS011;49701;48.072;7.800;2022-08-25T10:40:27;2.47;;;1.45;;
2662;SDS011;49701;48.072;7.800;2022-08-25T10:43:20;5.82;;;1.65;;
2662;SDS011;49701;48.072;7.800;2022-08-25T10:46:04;1.77;;;1.30;;
2662;SDS011;49701;48.072;7.800;2022-08-25T10:48:43;2.08;;;1.52;;
2662;SDS011;49701;48.072;7.800;2022-08-25T10:56:36;1.55;;;1.45;;
2662;SDS011;49701;48.072;7.800;2022-08-25T11:04:23;3.72;;;1.15;;
2662;SDS011;49701;48.072;7.800;2022-08-25T11:07:02;1.10;;;1.00;;
2662;SDS011;49701;48.072;7.800;2022-08-25T11:17:54;3.63;;;1.25;;
2662;SDS011;49701;48.072;7.800;2022-08-25T11:20:11;3.90;;;1.17;;
2662;SDS011;49701;48.072;7.800;2022-08-25T11:25:38;2.97;;;0.90;;
2662;SDS011;49701;48.072;7.800;2022-08-25T11:30:35;0.95;;;0.95;;
2662;SDS011;49701;48.072;7.800;2022-08-25T11:33:02;2.15;;;0.90;;
2662;SDS011;49701;48.072;7.800;2022-08-25T11:38:24;0.90;;;0.90;;
2662;SDS011;49701;48.072;7.800;2022-08-25T11:41:08;0.95;;;0.95;;
2662;SDS011;49701;48.072;7.800;2022-08-25T11:50:01;1.63;;;1.00;;
2662;SDS011;49701;48.072;7.800;2022-08-25T11:52:55;2.03;;;1.00;;
2662;SDS011;49701;48.072;7.800;2022-08-25T11:58:21;1.33;;;1.00;;
2662;SDS011;49701;48.072;7.800;2022-08-25T12:00:53;0.90;;;0.90;;
2662;SDS011;49701;48.072;7.800;2022-08-25T12:19:29;1.30;;;0.98;;
2662;SDS011;49701;48.072;7.800;2022-08-25T12:24:56;2.65;;;1.08;;
2662;SDS011;49701;48.072;7.800;2022-08-25T12:27:50;1.25;;;1.02;;
2662;SDS011;49701;48.072;7.800;2022-08-25T12:30:32;3.80;;;1.10;;
2662;SDS011;49701;48.072;7.800;2022-08-25T12:33:16;1.20;;;1.10;;
2662;SDS011;49701;48.072;7.800;2022-08-25T12:36:05;2.30;;;1.10;;
2662;SDS011;49701;48.072;7.800;2022-08-25T12:38:44;2.03;;;1.20;;
2662;SDS011;49701;48.072;7.800;2022-08-25T12:41:13;2.33;;;1.17;;
2662;SDS011;49701;48.072;7.800;2022-08-25T12:43:46;1.73;;;1.40;;
2662;SDS011;49701;48.072;7.800;2022-08-25T12:48:55;1.20;;;1.10;;
2662;SDS011;49701;48.072;7.800;2022-08-25T12:54:10;2.25;;;1.30;;
2662;SDS011;49701;48.072;7.800;2022-08-25T12:56:46;2.05;;;1.40;;
2662;SDS011;49701;48.072;7.800;2022-08-25T12:59:20;1.30;;;1.20;;
2662;SDS011;49701;48.072;7.800;2022-08-25T13:02:11;1.55;;;1.30;;
2662;SDS011;49701;48.072;7.800;2022-08-25T13:13:05;2.50;;;1.30;;
2662;SDS011;49701;48.072;7.800;2022-08-25T13:15:58;1.40;;;1.30;;
2662;SDS011;49701;48.072;7.800;2022-08-25T13:18:27;1.55;;;1.40;;
2662;SDS011;49701;48.072;7.800;2022-08-25T13:21:07;2.70;;;1.45;;
2662;SDS011;49701;48.072;7.800;2022-08-25T13:23:49;1.70;;;1.20;;
2662;SDS011;49701;48.072;7.800;2022-08-25T13:26:22;1.92;;;1.55;;
2662;SDS011;49701;48.072;7.800;2022-08-25T13:29:13;2.58;;;1.40;;
2662;SDS011;49701;48.072;7.800;2022-08-25T13:31:56;1.50;;;1.38;;
2662;SDS011;49701;48.072;7.800;2022-08-25T13:34:28;1.67;;;1.50;;
2662;SDS011;49701;48.072;7.800;2022-08-25T13:36:56;1.55;;;1.27;;
2662;SDS011;49701;48.072;7.800;2022-08-25T13:39:49;2.20;;;1.30;;
2662;SDS011;49701;48.072;7.800;2022-08-25T13:42:15;2.70;;;1.35;;
2662;SDS011;49701;48.072;7.800;2022-08-25T13:44:41;1.45;;;1.35;;
2662;SDS011;49701;48.072;7.800;2022-08-25T13:47:15;3.45;;;1.42;;
2662;SDS011;49701;48.072;7.800;2022-08-25T13:50:06;2.20;;;1.33;;
2662;SDS011;49701;48.072;7.800;2022-08-25T13:52:54;3.63;;;1.33;;
2662;SDS011;49701;48.072;7.800;2022-08-25T13:55:31;2.97;;;1.30;;
2662;SDS011;49701;48.072;7.800;2022-08-25T13:57:58;3.83;;;1.33;;
2662;SDS011;49701;48.072;7.800;2022-08-25T14:00:28;2.28;;;1.45;;
2662;SDS011;49701;48.072;7.800;2022-08-25T14:03:04;1.50;;;1.40;;
2662;SDS011;49701;48.072;7.800;2022-08-25T14:08:03;1.27;;;1.10;;
2662;SDS011;49701;48.072;7.800;2022-08-25T14:10:41;1.73;;;1.23;;
2662;SDS011;49701;48.072;7.800;2022-08-25T14:15:52;1.35;;;1.10;;
2662;SDS011;49701;48.072;7.800;2022-08-25T14:18:22;2.15;;;1.25;;
2662;SDS011;49701;48.072;7.800;2022-08-25T14:20:54;1.20;;;1.10;;
2662;SDS011;49701;48.072;7.800;2022-08-25T14:23:22;1.77;;;1.10;;
2662;SDS011;49701;48.072;7.800;2022-08-25T14:25:51;1.67;;;1.30;;
2662;SDS011;49701;48.072;7.800;2022-08-25T14:28:20;1.15;;;1.00;;
2662;SDS011;49701;48.072;7.800;2022-08-25T14:30:49;1.17;;;1.08;;
2662;SDS011;49701;48.072;7.800;2022-08-25T14:33:24;1.08;;;0.88;;
2662;SDS011;49701;48.072;7.800;2022-08-25T14:35:53;3.63;;;1.15;;
2662;SDS011;49701;48.072;7.800;2022-08-25T14:38:21;1.25;;;0.90;;
2662;SDS011;49701;48.072;7.800;2022-08-25T14:40:49;70.70;;;4.78;;
2662;SDS011;49701;48.072;7.800;2022-08-25T14:43:15;1.08;;;0.90;;
2662;SDS011;49701;48.072;7.800;2022-08-25T14:45:41;3.70;;;1.00;;
2662;SDS011;49701;48.072;7.800;2022-08-25T14:48:09;1.00;;;1.00;;
2662;SDS011;49701;48.072;7.800;2022-08-25T14:50:39;1.45;;;0.80;;
2662;SDS011;49701;48.072;7.800;2022-08-25T14:53:06;4.05;;;1.35;;
2662;SDS011;49701;48.072;7.800;2022-08-25T14:55:32;1.00;;;0.80;;
2662;SDS011;49701;48.072;7.800;2022-08-25T14:57:58;2.50;;;1.10;;
2662;SDS011;49701;48.072;7.800;2022-08-25T15:00:23;0.90;;;0.85;;
2662;SDS011;49701;48.072;7.800;2022-08-25T15:02:50;2.28;;;1.27;;
2662;SDS011;49701;48.072;7.800;2022-08-25T15:05:16;1.63;;;0.60;;
2662;SDS011;49701;48.072;7.800;2022-08-25T15:07:48;4.50;;;1.00;;
2662;SDS011;49701;48.072;7.800;2022-08-25T15:10:33;1.17;;;0.70;;
2662;SDS011;49701;48.072;7.800;2022-08-25T15:12:58;2.88;;;0.77;;
2662;SDS011;49701;48.072;7.800;2022-08-25T15:15:24;1.23;;;0.52;;
2662;SDS011;49701;48.072;7.800;2022-08-25T15:17:52;1.35;;;0.80;;
2662;SDS011;49701;48.072;7.800;2022-08-25T15:20:18;0.77;;;0.70;;
2662;SDS011;49701;48.072;7.800;2022-08-25T15:22:44;0.82;;;0.70;;
2662;SDS011;49701;48.072;7.800;2022-08-25T15:25:12;2.35;;;0.75;;
2662;SDS011;49701;48.072;7.800;2022-08-25T15:27:38;2.20;;;0.90;;
2662;SDS011;49701;48.072;7.800;2022-08-25T15:30:05;2.08;;;0.77;;
2662;SDS011;49701;48.072;7.800;2022-08-25T15:32:31;1.42;;;0.70;;
2662;SDS011;49701;48.072;7.800;2022-08-25T15:34:57;0.73;;;0.70;;
2662;SDS011;49701;48.072;7.800;2022-08-25T15:37:24;0.82;;;0.80;;
2662;SDS011;49701;48.072;7.800;2022-08-25T15:39:49;1.95;;;0.77;;
2662;SDS011;49701;48.072;7.800;2022-08-25T15:42:15;3.88;;;1.60;;
2662;SDS011;49701;48.072;7.800;2022-08-25T15:44:42;2.22;;;1.20;;
2662;SDS011;49701;48.072;7.800;2022-08-25T15:47:08;3.40;;;1.20;;
2662;SDS011;49701;48.072;7.800;2022-08-25T15:49:34;2.55;;;0.90;;
2662;SDS011;49701;48.072;7.800;2022-08-25T15:52:00;1.90;;;1.20;;
2662;SDS011;49701;48.072;7.800;2022-08-25T15:54:26;2.55;;;1.25;;
2662;SDS011;49701;48.072;7.800;2022-08-25T15:56:52;2.08;;;0.90;;
2662;SDS011;49701;48.072;7.800;2022-08-25T15:59:20;1.05;;;0.90;;
2662;SDS011;49701;48.072;7.800;2022-08-25T16:01:45;1.45;;;1.10;;
2662;SDS011;49701;48.072;7.800;2022-08-25T16:04:12;1.10;;;1.00;;
2662;SDS011;49701;48.072;7.800;2022-08-25T16:06:38;1.25;;;0.90;;
2662;SDS011;49701;48.072;7.800;2022-08-25T16:09:04;1.13;;;1.00;;
2662;SDS011;49701;48.072;7.800;2022-08-25T16:11:31;2.63;;;1.00;;
2662;SDS011;49701;48.072;7.800;2022-08-25T16:13:58;1.15;;;1.00;;
2662;SDS011;49701;48.072;7.800;2022-08-25T16:16:24;3.17;;;1.10;;
2662;SDS011;49701;48.072;7.800;2022-08-25T16:18:52;2.88;;;1.23;;
2662;SDS011;49701;48.072;7.800;2022-08-25T16:21:20;9.73;;;8.73;;
2662;SDS011;49701;48.072;7.800;2022-08-25T16:23:54;1.75;;;1.65;;
2662;SDS011;49701;48.072;7.800;2022-08-25T16:26:21;1.42;;;1.10;;
2662;SDS011;49701;48.072;7.800;2022-08-25T16:28:47;2.90;;;1.10;;
2662;SDS011;49701;48.072;7.800;2022-08-25T16:31:14;2.20;;;1.73;;
2662;SDS011;49701;48.072;7.800;2022-08-25T16:33:40;1.10;;;1.00;;
2662;SDS011;49701;48.072;7.800;2022-08-25T16:36:08;1.63;;;1.00;;
2662;SDS011;49701;48.072;7.800;2022-08-25T16:38:38;2.92;;;1.25;;
2662;SDS011;49701;48.072;7.800;2022-08-25T16:41:05;1.80;;;1.38;;
2662;SDS011;49701;48.072;7.800;2022-08-25T16:43:31;1.35;;;1.13;;
2662;SDS011;49701;48.072;7.800;2022-08-25T16:45:58;1.92;;;1.30;;
2662;SDS011;49701;48.072;7.800;2022-08-25T16:48:26;2.40;;;1.02;;
2662;SDS011;49701;48.072;7.800;2022-08-25T16:50:52;3.00;;;1.23;;
2662;SDS011;49701;48.072;7.800;2022-08-25T16:56:02;1.00;;;1.00;;
2662;SDS011;49701;48.072;7.800;2022-08-25T16:58:29;1.02;;;0.90;;
2662;SDS011;49701;48.072;7.800;2022-08-25T17:00:54;1.35;;;1.10;;
2662;SDS011;49701;48.072;7.800;2022-08-25T17:03:27;2.55;;;1.17;;
2662;SDS011;49701;48.072;7.800;2022-08-25T17:05:52;4.70;;;1.13;;
2662;SDS011;49701;48.072;7.800;2022-08-25T17:08:23;0.90;;;0.80;;
2662;SDS011;49701;48.072;7.800;2022-08-25T17:10:52;2.80;;;0.93;;
2662;SDS011;49701;48.072;7.800;2022-08-25T17:13:18;1.48;;;1.15;;
2662;SDS011;49701;48.072;7.800;2022-08-25T17:15:45;1.25;;;1.15;;
2662;SDS011;49701;48.072;7.800;2022-08-25T17:18:12;0.93;;;0.82;;
2662;SDS011;49701;48.072;7.800;2022-08-25T17:20:39;3.42;;;1.33;;
2662;SDS011;49701;48.072;7.800;2022-08-25T17:25:33;1.80;;;1.40;;
2662;SDS011;49701;48.072;7.800;2022-08-25T17:28:00;2.80;;;1.13;;
2662;SDS011;49701;48.072;7.800;2022-08-25T17:30:26;4.40;;;1.10;;
2662;SDS011;49701;48.072;7.800;2022-08-25T17:32:52;3.92;;;1.05;;
2662;SDS011;49701;48.072;7.800;2022-08-25T17:35:18;3.33;;;1.20;;
2662;SDS011;49701;48.072;7.800;2022-08-25T17:40:09;8.45;;;1.48;;
2662;SDS011;49701;48.072;7.800;2022-08-25T17:42:36;1.48;;;1.10;;
2662;SDS011;49701;48.072;7.800;2022-08-25T17:45:01;2.60;;;1.10;;
2662;SDS011;49701;48.072;7.800;2022-08-25T17:49:53;2.92;;;1.10;;